createdAt,value
2023-02-17T00:01:38.070Z,99976.00
2023-02-17T00:04:06.045Z,99969.00
2023-02-17T00:06:33.975Z,99974.00
2023-02-17T00:09:02.105Z,99966.00
2023-02-17T00:11:31.134Z,99961.00
2023-02-17T00:14:00.227Z,99974.00
2023-02-17T00:16:29.892Z,99950.00
2023-02-17T00:19:01.068Z,99959.00
2023-02-17T00:21:31.726Z,99967.00
2023-02-17T00:24:01.219Z,99964.00
2023-02-17T00:26:29.370Z,99952.00
2023-02-17T00:28:59.227Z,99961.00
2023-02-17T00:31:27.180Z,99958.00
2023-02-17T00:33:57.401Z,99959.00
2023-02-17T00:36:27.014Z,99947.00
2023-02-17T00:38:57.531Z,99941.00
2023-02-17T00:41:29.253Z,99950.00
2023-02-17T00:43:59.364Z,99939.00
2023-02-17T00:46:28.493Z,99945.00
2023-02-17T00:48:58.269Z,99948.00
2023-02-17T00:51:27.140Z,99937.00
2023-02-17T00:53:55.771Z,99940.00
2023-02-17T00:56:23.674Z,99945.00
2023-02-17T00:58:51.593Z,99947.00
2023-02-17T01:01:19.702Z,99954.00
2023-02-17T01:03:48.134Z,99942.00
2023-02-17T01:06:24.366Z,99941.00
2023-02-17T01:08:52.813Z,99950.00
2023-02-17T01:11:24.486Z,99954.00
2023-02-17T01:13:53.555Z,99951.00
2023-02-17T01:16:25.592Z,99950.00
2023-02-17T01:18:54.453Z,99951.00
2023-02-17T01:21:27.342Z,99958.00
2023-02-17T01:23:58.108Z,99944.00
2023-02-17T01:26:28.586Z,99950.00
2023-02-17T01:28:56.884Z,99941.00
2023-02-17T01:31:27.787Z,99933.00
2023-02-17T01:33:58.108Z,99933.00
2023-02-17T01:36:27.994Z,99936.00
2023-02-17T01:38:56.087Z,99927.00
2023-02-17T01:41:27.598Z,99920.00
2023-02-17T01:44:12.973Z,99922.00
2023-02-17T01:46:43.105Z,99904.00
2023-02-17T01:49:23.315Z,99909.00
2023-02-17T01:51:58.008Z,99902.00
2023-02-17T01:54:34.696Z,99901.00
2023-02-17T01:57:04.497Z,99888.00
2023-02-17T01:59:33.279Z,99885.00
2023-02-17T02:02:05.887Z,99902.00
2023-02-17T02:04:40.133Z,99890.00
2023-02-17T02:07:18.403Z,99885.00
2023-02-17T02:09:53.436Z,99869.00
2023-02-17T02:12:24.518Z,99874.00
2023-02-17T02:14:56.085Z,99848.00
2023-02-17T02:17:38.208Z,99871.00
2023-02-17T02:20:42.970Z,99860.00
2023-02-17T02:23:51.301Z,99864.00
2023-02-17T02:27:05.932Z,99852.00
2023-02-17T02:30:39.394Z,99834.00
2023-02-17T02:33:20.630Z,99833.00
2023-02-17T02:35:59.908Z,99833.00
2023-02-17T02:38:37.192Z,99832.00
2023-02-17T02:41:12.178Z,99799.00
2023-02-17T02:43:40.565Z,99817.00
2023-02-17T02:46:09.795Z,99826.00
2023-02-17T02:48:40.741Z,99819.00
2023-02-17T02:51:28.421Z,99803.00
2023-02-17T02:54:24.729Z,99797.00
2023-02-17T02:57:38.456Z,99800.00
2023-02-17T03:00:19.484Z,99808.00
2023-02-17T03:02:56.881Z,99806.00
2023-02-17T03:05:39.637Z,99806.00
2023-02-17T03:08:17.027Z,99801.00
2023-02-17T03:10:47.781Z,99812.00
2023-02-17T03:13:16.017Z,99810.00
2023-02-17T03:15:45.029Z,99792.00
2023-02-17T03:18:13.349Z,99811.00
2023-02-17T03:20:49.296Z,99786.00
2023-02-17T03:23:17.276Z,99794.00
2023-02-17T03:25:45.298Z,99788.00
2023-02-17T03:28:14.540Z,99783.00
2023-02-17T03:30:43.179Z,99776.00
2023-02-17T03:33:11.066Z,99780.00
2023-02-17T03:35:38.940Z,99781.00
2023-02-17T03:38:08.325Z,99776.00
2023-02-17T03:40:36.122Z,99777.00
2023-02-17T03:43:03.981Z,99780.00
2023-02-17T03:45:31.853Z,99781.00
2023-02-17T03:47:59.707Z,99784.00
2023-02-17T03:50:27.537Z,99786.00
2023-02-17T03:52:55.392Z,99782.00
2023-02-17T03:55:24.594Z,99790.00
2023-02-17T03:57:52.439Z,99788.00
2023-02-17T04:00:21.683Z,99786.00
2023-02-17T04:02:52.185Z,99765.00
2023-02-17T04:05:20.075Z,99786.00
2023-02-17T04:07:48.083Z,99788.00
2023-02-17T04:10:16.105Z,99781.00
2023-02-17T04:12:45.300Z,99781.00
2023-02-17T04:15:13.461Z,99780.00
2023-02-17T04:17:41.368Z,99778.00
2023-02-17T04:20:10.844Z,99771.00
2023-02-17T04:22:38.669Z,99756.00
2023-02-17T04:25:07.204Z,99749.00
2023-02-17T04:27:35.042Z,99756.00
2023-02-17T04:30:04.940Z,99751.00
2023-02-17T04:32:32.816Z,99744.00
2023-02-17T04:35:00.688Z,99748.00
2023-02-17T04:37:28.558Z,99747.00
2023-02-17T04:39:56.466Z,99738.00
2023-02-17T04:42:24.352Z,99743.00
2023-02-17T04:44:52.190Z,99745.00
2023-02-17T04:47:21.353Z,99742.00
2023-02-17T04:49:49.196Z,99746.00
2023-02-17T04:52:17.000Z,99724.00
2023-02-17T04:54:44.847Z,99740.00
2023-02-17T04:57:12.742Z,99744.00
2023-02-17T04:59:40.603Z,99745.00
2023-02-17T05:02:08.438Z,99727.00
2023-02-17T05:04:37.708Z,99736.00
2023-02-17T05:07:05.629Z,99737.00
2023-02-17T05:09:33.529Z,99733.00
2023-02-17T05:12:02.950Z,99725.00
2023-02-17T05:14:31.655Z,99715.00
2023-02-17T05:16:59.793Z,99708.00
2023-02-17T05:19:27.709Z,99724.00
2023-02-17T05:21:56.974Z,99712.00
2023-02-17T05:24:24.833Z,99712.00
2023-02-17T05:26:52.673Z,99723.00
2023-02-17T05:29:21.039Z,99714.00
2023-02-17T05:31:49.055Z,99711.00
2023-02-17T05:34:16.933Z,99708.00
2023-02-17T05:36:44.784Z,99700.00
2023-02-17T05:39:13.954Z,99700.00
2023-02-17T05:41:41.890Z,99705.00
2023-02-17T05:44:09.772Z,99702.00
2023-02-17T05:46:37.964Z,99695.00
2023-02-17T05:49:05.899Z,99702.00
2023-02-17T05:51:33.841Z,99698.00
2023-02-17T05:54:01.908Z,99707.00
2023-02-17T05:56:31.297Z,99699.00
2023-02-17T05:59:00.496Z,99699.00
2023-02-17T06:01:28.935Z,99680.00
2023-02-17T06:03:56.951Z,99689.00
2023-02-17T06:06:24.844Z,99683.00
2023-02-17T06:08:52.836Z,99676.00
2023-02-17T06:11:20.762Z,99677.00
2023-02-17T06:13:50.077Z,99670.00
2023-02-17T06:16:18.062Z,99682.00
2023-02-17T06:18:45.971Z,99682.00
2023-02-17T06:21:13.851Z,99700.00
2023-02-17T06:23:41.782Z,99702.00
2023-02-17T06:26:09.650Z,99702.00
2023-02-17T06:28:37.504Z,99713.00
2023-02-17T06:31:06.840Z,99708.00
2023-02-17T06:33:34.748Z,99706.00
2023-02-17T06:36:02.852Z,99709.00
2023-02-17T06:38:31.176Z,99704.00
2023-02-17T06:40:59.082Z,99695.00
2023-02-17T06:43:27.047Z,99699.00
2023-02-17T06:45:55.074Z,99699.00
2023-02-17T06:48:24.359Z,99684.00
2023-02-17T06:50:52.230Z,99694.00
2023-02-17T06:53:20.198Z,99699.00
2023-02-17T06:55:48.072Z,99693.00
2023-02-17T06:58:15.915Z,99705.00
2023-02-17T07:00:43.832Z,99701.00
2023-02-17T07:03:11.714Z,99690.00
2023-02-17T07:05:41.090Z,99684.00
2023-02-17T07:08:09.090Z,99688.00
2023-02-17T07:10:38.858Z,99698.00
2023-02-17T07:13:06.687Z,99689.00
2023-02-17T07:15:34.544Z,99695.00
2023-02-17T07:18:02.837Z,99685.00
2023-02-17T07:20:31.935Z,99678.00
2023-02-17T07:23:02.027Z,99679.00
2023-02-17T07:25:30.157Z,99683.00
2023-02-17T07:27:58.033Z,99679.00
2023-02-17T07:30:25.996Z,99684.00
2023-02-17T07:32:53.958Z,99683.00
2023-02-17T07:35:21.862Z,99695.00
2023-02-17T07:37:51.631Z,99681.00
2023-02-17T07:40:21.168Z,99693.00
2023-02-17T07:42:49.229Z,99684.00
2023-02-17T07:45:17.239Z,99691.00
2023-02-17T07:47:45.425Z,99690.00
2023-02-17T07:50:13.475Z,99682.00
2023-02-17T07:52:41.334Z,99698.00
2023-02-17T07:55:09.540Z,99700.00
2023-02-17T07:57:38.774Z,99697.00
2023-02-17T08:00:10.711Z,99703.00
2023-02-17T08:02:41.888Z,99686.00
2023-02-17T08:05:09.900Z,99705.00
2023-02-17T08:07:37.742Z,99699.00
2023-02-17T08:10:24.963Z,99698.00
2023-02-17T08:13:08.152Z,99695.00
2023-02-17T08:15:36.493Z,99706.00
2023-02-17T08:18:06.411Z,99706.00
2023-02-17T08:20:35.423Z,99705.00
2023-02-17T08:23:04.421Z,99707.00
2023-02-17T08:25:33.756Z,99698.00
2023-02-17T08:28:04.644Z,99688.00
2023-02-17T08:30:32.808Z,99700.00
2023-02-17T08:33:00.759Z,99684.00
2023-02-17T08:35:29.716Z,99683.00
2023-02-17T08:37:57.760Z,99673.00
2023-02-17T08:40:25.749Z,99669.00
2023-02-17T08:42:53.616Z,99666.00
2023-02-17T08:45:23.947Z,99651.00
2023-02-17T08:47:51.849Z,99657.00
2023-02-17T08:50:20.194Z,99648.00
2023-02-17T08:52:48.386Z,99658.00
2023-02-17T08:55:18.431Z,99659.00
2023-02-17T08:57:46.417Z,99653.00
2023-02-17T09:00:16.109Z,99657.00
2023-02-17T09:02:45.867Z,99640.00
2023-02-17T09:05:14.913Z,99645.00
2023-02-17T09:07:42.860Z,99639.00
2023-02-17T09:10:13.495Z,99645.00
2023-02-17T09:12:41.675Z,99640.00
2023-02-17T09:15:10.294Z,99637.00
2023-02-17T09:17:41.134Z,99637.00
2023-02-17T09:20:23.950Z,99644.00
2023-02-17T09:22:52.731Z,99647.00
2023-02-17T09:25:20.712Z,99644.00
2023-02-17T09:27:48.676Z,99641.00
2023-02-17T09:30:16.929Z,99629.00
2023-02-17T09:32:45.670Z,99643.00
2023-02-17T09:35:16.934Z,99627.00
2023-02-17T09:37:45.750Z,99630.00
2023-02-17T09:40:21.995Z,99624.00
2023-02-17T09:42:50.680Z,99629.00
2023-02-17T09:45:25.707Z,99621.00
2023-02-17T09:48:02.315Z,99614.00
2023-02-17T09:50:44.417Z,99603.00
2023-02-17T09:53:24.443Z,99611.00
2023-02-17T09:55:56.245Z,99601.00
2023-02-17T09:58:32.391Z,99603.00
2023-02-17T10:01:05.586Z,99611.00
2023-02-17T10:03:40.813Z,99606.00
2023-02-17T10:06:16.297Z,99607.00
2023-02-17T10:08:52.256Z,99593.00
2023-02-17T10:11:30.772Z,99584.00
2023-02-17T10:14:04.437Z,99580.00
2023-02-17T10:16:40.589Z,99575.00
2023-02-17T10:19:16.185Z,99553.00
2023-02-17T10:21:56.848Z,99560.00
2023-02-17T10:24:26.147Z,99547.00
2023-02-17T10:27:23.210Z,99542.00
2023-02-17T10:30:11.507Z,99534.00
2023-02-17T10:32:57.481Z,99538.00
2023-02-17T10:35:46.459Z,99540.00
2023-02-17T10:38:26.515Z,99547.00
2023-02-17T10:40:57.096Z,99537.00
2023-02-17T10:43:30.493Z,99536.00
2023-02-17T10:46:01.917Z,99533.00
2023-02-17T10:48:38.912Z,99529.00
2023-02-17T10:51:08.088Z,99542.00
2023-02-17T10:53:41.139Z,99523.00
2023-02-17T10:56:14.744Z,99529.00
2023-02-17T10:58:54.891Z,99514.00
2023-02-17T11:01:23.998Z,99518.00
2023-02-17T11:04:03.359Z,99507.00
2023-02-17T11:06:33.427Z,99491.00
2023-02-17T11:09:07.709Z,99489.00
2023-02-17T11:11:37.707Z,99492.00
2023-02-17T11:14:18.968Z,99491.00
2023-02-17T11:16:51.556Z,99491.00
2023-02-17T11:19:26.212Z,99486.00
2023-02-17T11:21:57.289Z,99475.00
2023-02-17T11:24:28.045Z,99486.00
2023-02-17T11:26:59.344Z,99489.00
2023-02-17T11:29:28.002Z,99484.00
2023-02-17T11:31:59.602Z,99477.00
2023-02-17T11:34:32.874Z,99470.00
2023-02-17T11:37:07.129Z,99467.00
2023-02-17T11:39:41.928Z,99453.00
2023-02-17T11:42:17.494Z,99457.00
2023-02-17T11:44:45.904Z,99454.00
2023-02-17T11:47:28.901Z,99444.00
2023-02-17T11:50:40.874Z,99444.00
2023-02-17T11:53:27.133Z,99449.00
2023-02-17T11:56:17.502Z,99443.00
2023-02-17T11:59:21.158Z,99435.00
2023-02-17T12:02:15.029Z,99422.00
2023-02-17T12:05:04.922Z,99427.00
2023-02-17T12:07:47.475Z,99409.00
2023-02-17T12:10:29.399Z,99420.00
2023-02-17T12:13:21.041Z,99418.00
2023-02-17T12:16:07.343Z,99428.00
2023-02-17T12:18:54.712Z,99417.00
2023-02-17T12:21:50.228Z,99414.00
2023-02-17T12:24:50.329Z,99402.00
2023-02-17T12:27:35.322Z,99361.00
2023-02-17T12:30:24.375Z,99393.00
2023-02-17T12:33:37.483Z,99396.00
2023-02-17T12:36:10.995Z,99392.00
2023-02-17T12:38:46.491Z,99375.00
2023-02-17T12:41:21.115Z,99369.00
2023-02-17T12:43:54.463Z,99368.00
2023-02-17T12:46:29.557Z,99369.00
2023-02-17T12:49:05.431Z,99373.00
2023-02-17T12:51:40.192Z,99379.00
2023-02-17T12:54:19.653Z,99375.00
2023-02-17T12:57:15.959Z,99374.00
2023-02-17T12:59:46.980Z,99373.00
2023-02-17T13:02:18.996Z,99368.00
2023-02-17T13:04:52.405Z,99359.00
2023-02-17T13:07:39.155Z,99349.00
2023-02-17T13:10:20.180Z,99357.00
2023-02-17T13:13:01.355Z,99353.00
2023-02-17T13:15:34.695Z,99343.00
2023-02-17T13:18:06.916Z,99339.00
2023-02-17T13:20:58.868Z,99333.00
2023-02-17T13:23:47.163Z,99326.00
2023-02-17T13:26:36.951Z,99322.00
2023-02-17T13:29:22.720Z,99311.00
2023-02-17T13:31:56.009Z,99296.00
2023-02-17T13:34:34.422Z,99297.00
2023-02-17T13:37:16.289Z,99286.00
2023-02-17T13:39:44.915Z,99295.00
2023-02-17T13:42:37.537Z,99297.00
2023-02-17T13:45:21.918Z,99299.00
2023-02-17T13:47:52.562Z,99294.00
2023-02-17T13:50:36.016Z,99299.00
2023-02-17T13:53:22.247Z,99312.00
2023-02-17T13:55:50.413Z,99295.00
2023-02-17T13:58:24.486Z,99291.00
2023-02-17T14:00:53.947Z,99295.00
2023-02-17T14:03:25.062Z,99288.00
2023-02-17T14:05:57.231Z,99289.00
2023-02-17T14:08:35.664Z,99271.00
2023-02-17T14:11:10.643Z,99275.00
2023-02-17T14:13:42.837Z,99259.00
2023-02-17T14:16:30.519Z,99257.00
2023-02-17T14:19:08.400Z,99260.00
2023-02-17T14:21:40.292Z,99250.00
2023-02-17T14:24:11.714Z,99244.00
2023-02-17T14:26:45.095Z,99242.00
2023-02-17T14:29:15.458Z,99261.00
2023-02-17T14:31:46.186Z,99251.00
2023-02-17T14:34:27.230Z,99255.00
2023-02-17T14:37:08.650Z,99269.00
2023-02-17T14:39:36.862Z,99270.00
2023-02-17T14:42:05.403Z,99273.00
2023-02-17T14:44:33.379Z,99270.00
2023-02-17T14:47:01.457Z,99260.00
2023-02-17T14:49:29.351Z,99259.00
2023-02-17T14:51:58.743Z,99249.00
2023-02-17T14:54:30.301Z,99261.00
2023-02-17T14:57:06.641Z,99257.00
2023-02-17T14:59:35.128Z,99259.00
2023-02-17T15:02:03.042Z,99248.00
2023-02-17T15:04:30.931Z,99254.00
2023-02-17T15:07:00.112Z,99258.00
2023-02-17T15:09:32.044Z,99244.00
2023-02-17T15:11:59.996Z,99238.00
2023-02-17T15:14:27.886Z,99245.00
2023-02-17T15:16:55.765Z,99255.00
2023-02-17T15:19:24.605Z,99281.00
2023-02-17T15:21:53.287Z,99297.00
2023-02-17T15:24:29.853Z,99307.00
2023-02-17T15:26:59.256Z,99320.00
2023-02-17T15:29:28.245Z,99319.00
2023-02-17T15:31:58.610Z,99304.00
2023-02-17T15:34:31.769Z,99281.00
2023-02-17T15:37:00.018Z,99283.00
2023-02-17T15:39:29.847Z,99278.00
2023-02-17T15:42:06.721Z,99280.00
2023-02-17T15:44:43.626Z,99271.00
2023-02-17T15:47:19.189Z,99284.00
2023-02-17T15:49:47.768Z,99267.00
2023-02-17T15:52:16.325Z,99278.00
2023-02-17T15:54:46.291Z,99268.00
2023-02-17T15:57:22.737Z,99271.00
2023-02-17T15:59:51.176Z,99268.00
2023-02-17T16:02:22.303Z,99254.00
2023-02-17T16:04:50.646Z,99259.00
2023-02-17T16:07:18.636Z,99255.00
2023-02-17T16:09:47.932Z,99261.00
2023-02-17T16:12:26.274Z,99259.00
2023-02-17T16:14:54.337Z,99251.00
2023-02-17T16:17:22.370Z,99257.00
2023-02-17T16:19:50.326Z,99251.00
2023-02-17T16:22:18.243Z,99259.00
2023-02-17T16:24:47.408Z,99261.00
2023-02-17T16:27:17.760Z,99245.00
2023-02-17T16:29:45.689Z,99259.00
2023-02-17T16:32:14.204Z,99252.00
2023-02-17T16:34:42.788Z,99242.00
2023-02-17T16:37:16.679Z,99236.00
2023-02-17T16:39:46.837Z,99238.00
2023-02-17T16:42:15.615Z,99236.00
2023-02-17T16:44:44.163Z,99234.00
2023-02-17T16:47:22.505Z,99227.00
2023-02-17T16:49:51.940Z,99235.00
2023-02-17T16:52:25.776Z,99229.00
2023-02-17T16:54:55.534Z,99231.00
2023-02-17T16:57:23.884Z,99226.00
2023-02-17T16:59:51.797Z,99229.00
2023-02-17T17:02:21.652Z,99230.00
2023-02-17T17:04:49.836Z,99228.00
2023-02-17T17:07:18.064Z,99243.00
2023-02-17T17:10:00.961Z,99256.00
2023-02-17T17:12:36.601Z,99255.00
2023-02-17T17:15:05.316Z,99259.00
2023-02-17T17:17:39.600Z,99260.00
2023-02-17T17:20:13.415Z,99257.00
2023-02-17T17:22:41.551Z,99275.00
2023-02-17T17:25:09.796Z,99273.00
2023-02-17T17:27:39.034Z,99280.00
2023-02-17T17:30:16.907Z,99288.00
2023-02-17T17:32:46.319Z,99293.00
2023-02-17T17:35:14.574Z,99312.00
2023-02-17T17:37:42.947Z,99294.00
2023-02-17T17:40:19.180Z,99293.00
2023-02-17T17:42:48.467Z,99311.00
2023-02-17T17:45:17.166Z,99315.00
2023-02-17T17:47:45.593Z,99300.00
2023-02-17T17:50:19.455Z,99323.00
2023-02-17T17:52:48.069Z,99337.00
2023-02-17T17:55:16.349Z,99350.00
2023-02-17T17:57:44.283Z,99351.00
2023-02-17T18:00:18.123Z,99363.00
2023-02-17T18:02:45.987Z,99371.00
2023-02-17T18:05:14.086Z,99376.00
2023-02-17T18:07:44.844Z,99391.00
2023-02-17T18:10:14.885Z,99394.00
2023-02-17T18:12:46.316Z,99395.00
2023-02-17T18:15:17.049Z,99397.00
2023-02-17T18:17:45.063Z,99408.00
2023-02-17T18:20:15.160Z,99402.00
2023-02-17T18:22:43.135Z,99427.00
2023-02-17T18:25:11.863Z,99432.00
2023-02-17T18:27:42.418Z,99414.00
2023-02-17T18:30:16.161Z,99425.00
2023-02-17T18:32:44.475Z,99432.00
2023-02-17T18:35:13.179Z,99433.00
2023-02-17T18:37:41.778Z,99435.00
2023-02-17T18:40:14.431Z,99440.00
2023-02-17T18:42:45.425Z,99430.00
2023-02-17T18:45:16.012Z,99439.00
2023-02-17T18:47:45.416Z,99427.00
2023-02-17T18:50:15.026Z,99432.00
2023-02-17T18:52:44.403Z,99434.00
2023-02-17T18:55:12.787Z,99429.00
2023-02-17T18:57:41.019Z,99433.00
2023-02-17T19:00:11.305Z,99424.00
2023-02-17T19:02:41.524Z,99427.00
2023-02-17T19:05:12.029Z,99423.00
2023-02-17T19:07:40.393Z,99432.00
2023-02-17T19:10:10.301Z,99438.00
2023-02-17T19:12:38.405Z,99434.00
2023-02-17T19:15:07.192Z,99440.00
2023-02-17T19:17:35.159Z,99442.00
2023-02-17T19:20:04.950Z,99449.00
2023-02-17T19:22:36.311Z,99437.00
2023-02-17T19:25:05.515Z,99427.00
2023-02-17T19:27:33.472Z,99439.00
2023-02-17T19:30:01.393Z,99434.00
2023-02-17T19:32:29.289Z,99452.00
2023-02-17T19:34:57.157Z,99442.00
2023-02-17T19:37:26.361Z,99444.00
2023-02-17T19:39:54.944Z,99451.00
2023-02-17T19:42:23.148Z,99443.00
2023-02-17T19:44:51.046Z,99458.00
2023-02-17T19:47:18.943Z,99460.00
2023-02-17T19:49:46.814Z,99461.00
2023-02-17T19:52:14.713Z,99459.00
2023-02-17T19:54:43.947Z,99460.00
2023-02-17T19:57:14.692Z,99460.00
2023-02-17T19:59:42.608Z,99471.00
2023-02-17T20:02:14.268Z,99461.00
2023-02-17T20:04:42.398Z,99479.00
2023-02-17T20:07:10.568Z,99468.00
2023-02-17T20:09:38.714Z,99478.00
2023-02-17T20:12:08.754Z,99480.00
2023-02-17T20:14:36.691Z,99479.00
2023-02-17T20:17:04.769Z,99479.00
2023-02-17T20:19:32.655Z,99475.00
2023-02-17T20:22:01.066Z,99481.00
2023-02-17T20:24:29.118Z,99479.00
2023-02-17T20:26:57.086Z,99485.00
2023-02-17T20:29:26.408Z,99492.00
2023-02-17T20:31:55.243Z,99498.00
2023-02-17T20:34:29.867Z,99492.00
2023-02-17T20:36:58.831Z,99497.00
2023-02-17T20:39:27.299Z,99490.00
2023-02-17T20:41:56.703Z,99492.00
2023-02-17T20:44:28.106Z,99513.00
2023-02-17T20:46:57.676Z,99510.00
2023-02-17T20:49:25.929Z,99511.00
2023-02-17T20:51:54.057Z,99518.00
2023-02-17T20:54:24.611Z,99523.00
2023-02-17T20:56:52.936Z,99528.00
2023-02-17T20:59:21.488Z,99531.00
2023-02-17T21:01:50.717Z,99542.00
2023-02-17T21:04:18.780Z,99538.00
2023-02-17T21:06:47.361Z,99548.00
2023-02-17T21:09:18.580Z,99537.00
2023-02-17T21:11:48.009Z,99538.00
2023-02-17T21:14:16.220Z,99549.00
2023-02-17T21:16:44.399Z,99554.00
2023-02-17T21:19:14.196Z,99564.00
2023-02-17T21:21:42.113Z,99568.00
2023-02-17T21:24:10.123Z,99565.00
2023-02-17T21:26:38.164Z,99573.00
2023-02-17T21:29:06.768Z,99576.00
2023-02-17T21:31:36.064Z,99580.00
2023-02-17T21:34:04.746Z,99584.00
2023-02-17T21:36:34.244Z,99587.00
2023-02-17T21:39:04.165Z,99596.00
2023-02-17T21:41:32.552Z,99613.00
2023-02-17T21:44:19.040Z,99605.00
2023-02-17T21:46:47.339Z,99613.00
2023-02-17T21:49:15.964Z,99623.00
2023-02-17T21:51:45.215Z,99629.00
2023-02-17T21:54:13.347Z,99620.00
2023-02-17T21:56:41.507Z,99614.00
2023-02-17T21:59:09.984Z,99636.00
2023-02-17T22:01:38.425Z,99645.00
2023-02-17T22:04:06.633Z,99644.00
2023-02-17T22:06:37.535Z,99647.00
2023-02-17T22:09:09.444Z,99666.00
2023-02-17T22:11:41.707Z,99660.00
2023-02-17T22:14:14.808Z,99692.00
2023-02-17T22:16:42.791Z,99688.00
2023-02-17T22:19:17.695Z,99691.00
2023-02-17T22:21:46.987Z,99693.00
2023-02-17T22:24:17.145Z,99693.00
2023-02-17T22:26:45.013Z,99704.00
2023-02-17T22:29:12.968Z,99701.00
2023-02-17T22:31:40.874Z,99702.00
2023-02-17T22:34:10.708Z,99680.00
2023-02-17T22:36:39.168Z,99689.00
2023-02-17T22:39:09.300Z,99693.00
2023-02-17T22:41:40.726Z,99702.00
2023-02-17T22:44:10.036Z,99699.00
2023-02-17T22:46:37.933Z,99704.00
2023-02-17T22:49:06.334Z,99702.00
2023-02-17T22:51:38.715Z,99700.00
2023-02-17T22:54:08.067Z,99707.00
2023-02-17T22:56:38.596Z,99707.00
2023-02-17T22:59:07.808Z,99708.00
2023-02-17T23:01:37.725Z,99705.00
2023-02-17T23:04:06.769Z,99708.00
2023-02-17T23:06:37.915Z,99712.00
2023-02-17T23:09:09.255Z,99720.00
2023-02-17T23:11:54.667Z,99719.00
2023-02-17T23:14:26.860Z,99722.00
2023-02-17T23:16:59.598Z,99735.00
2023-02-17T23:19:28.639Z,99726.00
2023-02-17T23:21:59.646Z,99726.00
2023-02-17T23:24:28.251Z,99722.00
2023-02-17T23:27:00.745Z,99716.00
2023-02-17T23:29:31.366Z,99728.00
2023-02-17T23:31:59.744Z,99728.00
2023-02-17T23:34:29.143Z,99720.00
2023-02-17T23:36:57.642Z,99724.00
2023-02-17T23:39:25.703Z,99716.00
2023-02-17T23:41:53.623Z,99723.00
2023-02-17T23:44:22.888Z,99730.00
2023-02-17T23:46:50.791Z,99728.00
2023-02-17T23:49:18.910Z,99730.00
2023-02-17T23:51:47.771Z,99732.00
2023-02-17T23:54:16.165Z,99724.00
2023-02-17T23:56:44.171Z,99720.00
2023-02-17T23:59:12.576Z,99717.00
